Meers, Oklahoma
Current Conditions -  °F | °C
As of 2:58 AM on Sunday 21 Dec 2014 (Local Time) from KFSI Reporting Station
Overcast Overcast  
Wind Chill: 38°   Ceiling: 2100
Heat Index: 44°   Visibility: 10mi
Dew Point: 40°   Wind: 12mph
Humidity: 85%   Direction: 170°S
Pressure: 30.07"   Gusts: NA
Location:  34.78°N, 98.58°W
Report Text: KFSI 210858Z AUTO 17010KT 10SM OVC021 07/04 A3007 RMK AO2 SLP185 T00650042 57011
Loading
Personal Weather Stations






























Interactive Weather Map New forecast layout! Learn more

10-Day Weather Forecast

Advertisements
Track Severe Weather on mobile